sensor_id;sensor_type;location;lat;lon;timestamp;pressure;altitude;pressure_sealevel;temperature
17716;BMP280;50159;49.426;11.182;2023-02-01T00:00:54;98047.75;;;4.72
17716;BMP280;50159;49.426;11.182;2023-02-01T00:03:21;98051.16;;;4.73
17716;BMP280;50159;49.426;11.182;2023-02-01T00:05:58;98049.34;;;4.75
17716;BMP280;50159;49.426;11.182;2023-02-01T00:08:26;98058.88;;;4.73
17716;BMP280;50159;49.426;11.182;2023-02-01T00:13:33;98052.47;;;4.65
17716;BMP280;50159;49.426;11.182;2023-02-01T00:16:21;98048.59;;;4.73
17716;BMP280;50159;49.426;11.182;2023-02-01T00:18:50;98053.31;;;4.65
17716;BMP280;50159;49.426;11.182;2023-02-01T00:21:20;98057.06;;;4.75
17716;BMP280;50159;49.426;11.182;2023-02-01T00:23:48;98047.91;;;4.69
17716;BMP280;50159;49.426;11.182;2023-02-01T00:26:18;98055.88;;;4.65
17716;BMP280;50159;49.426;11.182;2023-02-01T00:28:46;98053.88;;;4.70
17716;BMP280;50159;49.426;11.182;2023-02-01T00:31:13;98042.91;;;4.67
17716;BMP280;50159;49.426;11.182;2023-02-01T00:33:41;98047.06;;;4.69
17716;BMP280;50159;49.426;11.182;2023-02-01T00:36:09;98047.06;;;4.69
17716;BMP280;50159;49.426;11.182;2023-02-01T00:38:37;98057.91;;;4.75
17716;BMP280;50159;49.426;11.182;2023-02-01T00:41:12;98053.72;;;4.73
17716;BMP280;50159;49.426;11.182;2023-02-01T00:43:40;98044.13;;;4.76
17716;BMP280;50159;49.426;11.182;2023-02-01T00:46:07;98050.41;;;4.71
17716;BMP280;50159;49.426;11.182;2023-02-01T00:48:35;98056.38;;;4.71
17716;BMP280;50159;49.426;11.182;2023-02-01T00:51:12;98053.66;;;4.74
17716;BMP280;50159;49.426;11.182;2023-02-01T00:53:40;98049.13;;;4.79
17716;BMP280;50159;49.426;11.182;2023-02-01T00:56:07;98053.28;;;4.82
17716;BMP280;50159;49.426;11.182;2023-02-01T00:58:35;98049.03;;;4.81
17716;BMP280;50159;49.426;11.182;2023-02-01T01:01:16;98050.47;;;4.86
17716;BMP280;50159;49.426;11.182;2023-02-01T01:03:48;98046.03;;;4.90
17716;BMP280;50159;49.426;11.182;2023-02-01T01:06:22;98043.19;;;4.94
17716;BMP280;50159;49.426;11.182;2023-02-01T01:08:52;98040.88;;;4.90
17716;BMP280;50159;49.426;11.182;2023-02-01T01:11:24;98042.66;;;4.88
17716;BMP280;50159;49.426;11.182;2023-02-01T01:13:53;98040.88;;;4.90
17716;BMP280;50159;49.426;11.182;2023-02-01T01:16:24;98032.72;;;4.97
17716;BMP280;50159;49.426;11.182;2023-02-01T01:18:52;98044.13;;;4.93
17716;BMP280;50159;49.426;11.182;2023-02-01T01:21:20;98033.63;;;4.96
17716;BMP280;50159;49.426;11.182;2023-02-01T01:23:47;98029.56;;;4.92
17716;BMP280;50159;49.426;11.182;2023-02-01T01:26:19;98041.53;;;4.93
17716;BMP280;50159;49.426;11.182;2023-02-01T01:28:46;98028.47;;;4.96
17716;BMP280;50159;49.426;11.182;2023-02-01T01:31:16;98033.06;;;4.91
17716;BMP280;50159;49.426;11.182;2023-02-01T01:33:43;98040.03;;;4.89
17716;BMP280;50159;49.426;11.182;2023-02-01T01:36:11;98034.09;;;4.87
17716;BMP280;50159;49.426;11.182;2023-02-01T01:38:42;98031.59;;;4.86
17716;BMP280;50159;49.426;11.182;2023-02-01T01:41:15;98033.25;;;4.87
17716;BMP280;50159;49.426;11.182;2023-02-01T01:47:15;98030.34;;;4.77
17716;BMP280;50159;49.426;11.182;2023-02-01T01:49:43;98024.78;;;4.85
17716;BMP280;50159;49.426;11.182;2023-02-01T01:52:10;98030.41;;;4.76
17716;BMP280;50159;49.426;11.182;2023-02-01T01:54:47;98026.31;;;4.72
17716;BMP280;50159;49.426;11.182;2023-02-01T01:57:24;98025.31;;;4.74
17716;BMP280;50159;49.426;11.182;2023-02-01T02:00:00;98022.97;;;4.70
17716;BMP280;50159;49.426;11.182;2023-02-01T02:02:29;98015.16;;;4.71
17716;BMP280;50159;49.426;11.182;2023-02-01T02:04:56;98016.09;;;4.70
17716;BMP280;50159;49.426;11.182;2023-02-01T02:07:30;98014.41;;;4.69
17716;BMP280;50159;49.426;11.182;2023-02-01T02:09:59;98010.19;;;4.68
17716;BMP280;50159;49.426;11.182;2023-02-01T02:12:28;98014.50;;;4.68
17716;BMP280;50159;49.426;11.182;2023-02-01T02:14:55;98017.81;;;4.70
17716;BMP280;50159;49.426;11.182;2023-02-01T02:17:56;98022.91;;;4.71
17716;BMP280;50159;49.426;11.182;2023-02-01T02:21:02;98020.31;;;4.71
17716;BMP280;50159;49.426;11.182;2023-02-01T02:27:04;98014.25;;;4.72
17716;BMP280;50159;49.426;11.182;2023-02-01T02:35:45;98006.38;;;4.75
17716;BMP280;50159;49.426;11.182;2023-02-01T02:41:42;97993.44;;;4.77
17716;BMP280;50159;49.426;11.182;2023-02-01T02:44:45;97996.00;;;4.77
17716;BMP280;50159;49.426;11.182;2023-02-01T02:47:48;98002.66;;;4.81
17716;BMP280;50159;49.426;11.182;2023-02-01T02:50:38;98002.59;;;4.82
17716;BMP280;50159;49.426;11.182;2023-02-01T02:53:33;97992.44;;;4.79
17716;BMP280;50159;49.426;11.182;2023-02-01T02:56:22;97997.44;;;4.82
17716;BMP280;50159;49.426;11.182;2023-02-01T02:59:12;97995.22;;;4.75
17716;BMP280;50159;49.426;11.182;2023-02-01T03:01:59;97996.38;;;4.69
17716;BMP280;50159;49.426;11.182;2023-02-01T03:04:45;97993.81;;;4.69
17716;BMP280;50159;49.426;11.182;2023-02-01T03:10:05;97982.13;;;4.63
17716;BMP280;50159;49.426;11.182;2023-02-01T03:12:39;97971.81;;;4.63
17716;BMP280;50159;49.426;11.182;2023-02-01T03:15:42;97968.41;;;4.62
17716;BMP280;50159;49.426;11.182;2023-02-01T03:18:41;97964.19;;;4.61
17716;BMP280;50159;49.426;11.182;2023-02-01T03:21:13;97958.94;;;4.63
17716;BMP280;50159;49.426;11.182;2023-02-01T03:23:44;97959.78;;;4.63
17716;BMP280;50159;49.426;11.182;2023-02-01T03:26:16;97958.66;;;4.68
17716;BMP280;50159;49.426;11.182;2023-02-01T03:29:07;97954.72;;;4.62
17716;BMP280;50159;49.426;11.182;2023-02-01T03:31:35;97952.59;;;4.69
17716;BMP280;50159;49.426;11.182;2023-02-01T03:34:03;97959.72;;;4.65
17716;BMP280;50159;49.426;11.182;2023-02-01T03:36:48;97962.44;;;4.62
17716;BMP280;50159;49.426;11.182;2023-02-01T03:42:08;97963.34;;;4.61
17716;BMP280;50159;49.426;11.182;2023-02-01T03:45:24;97955.94;;;4.55
17716;BMP280;50159;49.426;11.182;2023-02-01T03:47:35;97950.63;;;4.58
17716;BMP280;50159;49.426;11.182;2023-02-01T03:50:11;97954.94;;;4.57
17716;BMP280;50159;49.426;11.182;2023-02-01T03:52:48;97942.00;;;4.59
17716;BMP280;50159;49.426;11.182;2023-02-01T03:55:21;97948.81;;;4.60
17716;BMP280;50159;49.426;11.182;2023-02-01T03:57:56;97952.28;;;4.59
17716;BMP280;50159;49.426;11.182;2023-02-01T04:00:26;97940.09;;;4.62
17716;BMP280;50159;49.426;11.182;2023-02-01T04:02:53;97942.66;;;4.62
17716;BMP280;50159;49.426;11.182;2023-02-01T04:05:21;97939.63;;;4.71
17716;BMP280;50159;49.426;11.182;2023-02-01T04:07:48;97937.88;;;4.71
17716;BMP280;50159;49.426;11.182;2023-02-01T04:10:16;97929.25;;;4.72
17716;BMP280;50159;49.426;11.182;2023-02-01T04:12:45;97938.72;;;4.72
17716;BMP280;50159;49.426;11.182;2023-02-01T04:15:12;97939.09;;;4.81
17716;BMP280;50159;49.426;11.182;2023-02-01T04:17:39;97922.13;;;4.77
17716;BMP280;50159;49.426;11.182;2023-02-01T04:20:06;97928.19;;;4.76
17716;BMP280;50159;49.426;11.182;2023-02-01T04:22:33;97918.31;;;4.84
17716;BMP280;50159;49.426;11.182;2023-02-01T04:25:00;97918.22;;;4.86
17716;BMP280;50159;49.426;11.182;2023-02-01T04:27:26;97922.72;;;4.82
17716;BMP280;50159;49.426;11.182;2023-02-01T04:29:53;97928.63;;;4.84
17716;BMP280;50159;49.426;11.182;2023-02-01T04:32:23;97919.31;;;4.82
17716;BMP280;50159;49.426;11.182;2023-02-01T04:34:50;97925.28;;;4.82
17716;BMP280;50159;49.426;11.182;2023-02-01T04:37:17;97920.97;;;4.83
17716;BMP280;50159;49.426;11.182;2023-02-01T04:39:44;97923.28;;;4.87
17716;BMP280;50159;49.426;11.182;2023-02-01T04:42:10;97926.03;;;4.84
17716;BMP280;50159;49.426;11.182;2023-02-01T04:44:37;97926.78;;;4.86
17716;BMP280;50159;49.426;11.182;2023-02-01T04:47:06;97934.44;;;4.88
17716;BMP280;50159;49.426;11.182;2023-02-01T04:49:32;97931.81;;;4.89
17716;BMP280;50159;49.426;11.182;2023-02-01T04:52:00;97925.13;;;4.85
17716;BMP280;50159;49.426;11.182;2023-02-01T04:54:27;97919.47;;;4.79
17716;BMP280;50159;49.426;11.182;2023-02-01T04:56:53;97919.09;;;4.69
17716;BMP280;50159;49.426;11.182;2023-02-01T04:59:20;97921.09;;;4.65
17716;BMP280;50159;49.426;11.182;2023-02-01T05:01:47;97924.41;;;4.67
17716;BMP280;50159;49.426;11.182;2023-02-01T05:04:14;97916.91;;;4.62
17716;BMP280;50159;49.426;11.182;2023-02-01T05:06:41;97919.72;;;4.58
17716;BMP280;50159;49.426;11.182;2023-02-01T05:09:08;97911.25;;;4.56
17716;BMP280;50159;49.426;11.182;2023-02-01T05:11:35;97923.28;;;4.55
17716;BMP280;50159;49.426;11.182;2023-02-01T05:14:20;97926.03;;;4.52
17716;BMP280;50159;49.426;11.182;2023-02-01T05:16:47;97916.56;;;4.53
17716;BMP280;50159;49.426;11.182;2023-02-01T05:19:14;97917.53;;;4.50
17716;BMP280;50159;49.426;11.182;2023-02-01T05:21:40;97909.59;;;4.55
17716;BMP280;50159;49.426;11.182;2023-02-01T05:24:08;97915.94;;;4.48
17716;BMP280;50159;49.426;11.182;2023-02-01T05:26:48;97917.47;;;4.52
17716;BMP280;50159;49.426;11.182;2023-02-01T05:29:16;97914.28;;;4.47
17716;BMP280;50159;49.426;11.182;2023-02-01T05:31:47;97913.53;;;4.45
17716;BMP280;50159;49.426;11.182;2023-02-01T05:34:15;97918.94;;;4.41
17716;BMP280;50159;49.426;11.182;2023-02-01T05:36:42;97910.50;;;4.37
17716;BMP280;50159;49.426;11.182;2023-02-01T05:39:09;97926.78;;;4.38
17716;BMP280;50159;49.426;11.182;2023-02-01T05:41:36;97927.66;;;4.38
17716;BMP280;50159;49.426;11.182;2023-02-01T05:44:05;97929.16;;;4.42
17716;BMP280;50159;49.426;11.182;2023-02-01T05:46:35;97940.34;;;4.41
17716;BMP280;50159;49.426;11.182;2023-02-01T05:49:03;97931.81;;;4.41
17716;BMP280;50159;49.426;11.182;2023-02-01T05:51:30;97936.13;;;4.40
17716;BMP280;50159;49.426;11.182;2023-02-01T05:53:57;97947.38;;;4.38
17716;BMP280;50159;49.426;11.182;2023-02-01T05:56:24;97952.53;;;4.38
17716;BMP280;50159;49.426;11.182;2023-02-01T05:58:51;97934.59;;;4.36
17716;BMP280;50159;49.426;11.182;2023-02-01T06:01:18;97923.84;;;4.28
17716;BMP280;50159;49.426;11.182;2023-02-01T06:03:45;97923.22;;;4.23
17716;BMP280;50159;49.426;11.182;2023-02-01T06:06:12;97923.47;;;4.19
17716;BMP280;50159;49.426;11.182;2023-02-01T06:08:39;97921.06;;;4.16
17716;BMP280;50159;49.426;11.182;2023-02-01T06:11:07;97926.47;;;4.10
17716;BMP280;50159;49.426;11.182;2023-02-01T06:13:34;97929.81;;;4.12
17716;BMP280;50159;49.426;11.182;2023-02-01T06:16:02;97931.72;;;4.09
17716;BMP280;50159;49.426;11.182;2023-02-01T06:18:29;97926.72;;;4.06
17716;BMP280;50159;49.426;11.182;2023-02-01T06:20:58;97914.09;;;4.02
17716;BMP280;50159;49.426;11.182;2023-02-01T06:23:30;97912.47;;;3.99
17716;BMP280;50159;49.426;11.182;2023-02-01T06:26:06;97903.91;;;3.99
17716;BMP280;50159;49.426;11.182;2023-02-01T06:28:34;97898.03;;;3.97
17716;BMP280;50159;49.426;11.182;2023-02-01T06:31:06;97901.50;;;3.96
17716;BMP280;50159;49.426;11.182;2023-02-01T06:33:35;97897.19;;;3.96
17716;BMP280;50159;49.426;11.182;2023-02-01T06:36:05;97909.31;;;3.94
17716;BMP280;50159;49.426;11.182;2023-02-01T06:38:33;97906.88;;;3.91
17716;BMP280;50159;49.426;11.182;2023-02-01T06:41:04;97910.28;;;3.92
17716;BMP280;50159;49.426;11.182;2023-02-01T06:43:31;97910.22;;;3.93
17716;BMP280;50159;49.426;11.182;2023-02-01T06:46:04;97915.28;;;3.95
17716;BMP280;50159;49.426;11.182;2023-02-01T06:48:33;97906.50;;;3.99
17716;BMP280;50159;49.426;11.182;2023-02-01T06:50:59;97903.91;;;3.99
17716;BMP280;50159;49.426;11.182;2023-02-01T06:53:26;97909.91;;;3.99
17716;BMP280;50159;49.426;11.182;2023-02-01T06:56:02;97905.66;;;3.98
17716;BMP280;50159;49.426;11.182;2023-02-01T06:58:32;97904.00;;;3.97
17716;BMP280;50159;49.426;11.182;2023-02-01T07:01:06;97902.34;;;3.96
17716;BMP280;50159;49.426;11.182;2023-02-01T07:03:33;97908.31;;;3.97
17716;BMP280;50159;49.426;11.182;2023-02-01T07:06:01;97907.31;;;3.99
17716;BMP280;50159;49.426;11.182;2023-02-01T07:08:33;97922.75;;;3.99
17716;BMP280;50159;49.426;11.182;2023-02-01T07:11:06;97909.81;;;4.01
17716;BMP280;50159;49.426;11.182;2023-02-01T07:13:33;97920.00;;;4.03
17716;BMP280;50159;49.426;11.182;2023-02-01T07:16:04;97921.50;;;4.07
17716;BMP280;50159;49.426;11.182;2023-02-01T07:18:32;97922.31;;;4.08
17716;BMP280;50159;49.426;11.182;2023-02-01T07:20:59;97911.19;;;4.07
17716;BMP280;50159;49.426;11.182;2023-02-01T07:23:27;97919.75;;;4.08
17716;BMP280;50159;49.426;11.182;2023-02-01T07:26:00;97922.25;;;4.09
17716;BMP280;50159;49.426;11.182;2023-02-01T07:28:30;97927.31;;;4.11
17716;BMP280;50159;49.426;11.182;2023-02-01T07:31:10;97922.16;;;4.11
17716;BMP280;50159;49.426;11.182;2023-02-01T07:33:37;97928.06;;;4.13
17716;BMP280;50159;49.426;11.182;2023-02-01T07:36:06;97921.13;;;4.15
17716;BMP280;50159;49.426;11.182;2023-02-01T07:38:33;97927.88;;;4.17
17716;BMP280;50159;49.426;11.182;2023-02-01T07:41:03;97937.84;;;4.23
17716;BMP280;50159;49.426;11.182;2023-02-01T07:43:31;97934.44;;;4.23
17716;BMP280;50159;49.426;11.182;2023-02-01T07:46:00;97931.88;;;4.23
17716;BMP280;50159;49.426;11.182;2023-02-01T07:48:28;97928.28;;;4.25
17716;BMP280;50159;49.426;11.182;2023-02-01T07:51:10;97927.34;;;4.27
17716;BMP280;50159;49.426;11.182;2023-02-01T07:53:38;97928.59;;;4.36
17716;BMP280;50159;49.426;11.182;2023-02-01T07:56:15;97930.25;;;4.37
17716;BMP280;50159;49.426;11.182;2023-02-01T07:58:50;97931.72;;;4.42
17716;BMP280;50159;49.426;11.182;2023-02-01T08:01:20;97928.81;;;4.48
17716;BMP280;50159;49.426;11.182;2023-02-01T08:03:53;97927.81;;;4.50
17716;BMP280;50159;49.426;11.182;2023-02-01T08:06:22;97924.28;;;4.53
17716;BMP280;50159;49.426;11.182;2023-02-01T08:08:50;97918.91;;;4.57
17716;BMP280;50159;49.426;11.182;2023-02-01T08:11:18;97904.56;;;4.68
17716;BMP280;50159;49.426;11.182;2023-02-01T08:13:45;97910.47;;;4.70
17716;BMP280;50159;49.426;11.182;2023-02-01T08:16:15;97915.44;;;4.73
17716;BMP280;50159;49.426;11.182;2023-02-01T08:18:43;97921.13;;;4.80
17716;BMP280;50159;49.426;11.182;2023-02-01T08:21:17;97915.06;;;4.81
17716;BMP280;50159;49.426;11.182;2023-02-01T08:23:44;97912.66;;;4.78
17716;BMP280;50159;49.426;11.182;2023-02-01T08:26:22;97925.28;;;4.82
17716;BMP280;50159;49.426;11.182;2023-02-01T08:28:56;97917.16;;;4.90
17716;BMP280;50159;49.426;11.182;2023-02-01T08:31:26;97926.31;;;4.95
17716;BMP280;50159;49.426;11.182;2023-02-01T08:33:59;97939.03;;;4.98
17716;BMP280;50159;49.426;11.182;2023-02-01T08:36:29;97938.81;;;5.02
17716;BMP280;50159;49.426;11.182;2023-02-01T08:38:57;97947.50;;;5.00
17716;BMP280;50159;49.426;11.182;2023-02-01T08:41:27;97953.28;;;5.05
17716;BMP280;50159;49.426;11.182;2023-02-01T08:43:56;97959.34;;;5.04
17716;BMP280;50159;49.426;11.182;2023-02-01T08:46:23;97944.63;;;5.06
17716;BMP280;50159;49.426;11.182;2023-02-01T08:48:51;97949.53;;;5.10
17716;BMP280;50159;49.426;11.182;2023-02-01T08:51:21;97949.88;;;5.19
17716;BMP280;50159;49.426;11.182;2023-02-01T08:53:48;97962.94;;;5.16
17716;BMP280;50159;49.426;11.182;2023-02-01T08:56:17;97963.25;;;5.11
17716;BMP280;50159;49.426;11.182;2023-02-01T08:58:44;97964.34;;;5.07
17716;BMP280;50159;49.426;11.182;2023-02-01T09:01:14;97952.81;;;5.13
17716;BMP280;50159;49.426;11.182;2023-02-01T09:03:42;97938.22;;;5.13
17716;BMP280;50159;49.426;11.182;2023-02-01T09:06:14;97934.97;;;5.09
17716;BMP280;50159;49.426;11.182;2023-02-01T09:08:42;97937.66;;;5.08
17716;BMP280;50159;49.426;11.182;2023-02-01T09:11:13;97940.38;;;5.05
17716;BMP280;50159;49.426;11.182;2023-02-01T09:13:40;97947.28;;;5.04
17716;BMP280;50159;49.426;11.182;2023-02-01T09:16:08;97933.66;;;5.02
17716;BMP280;50159;49.426;11.182;2023-02-01T09:18:35;97936.97;;;5.04
17716;BMP280;50159;49.426;11.182;2023-02-01T09:21:09;97944.38;;;5.10
17716;BMP280;50159;49.426;11.182;2023-02-01T09:23:35;97959.00;;;5.10
17716;BMP280;50159;49.426;11.182;2023-02-01T09:26:05;97966.81;;;5.08
17716;BMP280;50159;49.426;11.182;2023-02-01T09:28:32;97988.28;;;5.09
17716;BMP280;50159;49.426;11.182;2023-02-01T09:31:00;97982.38;;;5.07
17716;BMP280;50159;49.426;11.182;2023-02-01T09:33:28;97991.50;;;4.97
17716;BMP280;50159;49.426;11.182;2023-02-01T09:36:01;97992.50;;;4.94
17716;BMP280;50159;49.426;11.182;2023-02-01T09:38:30;98012.09;;;4.97
17716;BMP280;50159;49.426;11.182;2023-02-01T09:40:59;98007.13;;;4.94
17716;BMP280;50159;49.426;11.182;2023-02-01T09:46:26;98024.66;;;4.71
17716;BMP280;50159;49.426;11.182;2023-02-01T09:49:01;98018.59;;;4.55
17716;BMP280;50159;49.426;11.182;2023-02-01T09:51:38;98018.34;;;4.43
17716;BMP280;50159;49.426;11.182;2023-02-01T09:54:21;98020.09;;;4.43
17716;BMP280;50159;49.426;11.182;2023-02-01T09:56:56;98029.19;;;4.49
17716;BMP280;50159;49.426;11.182;2023-02-01T10:00:06;98020.94;;;4.60
17716;BMP280;50159;49.426;11.182;2023-02-01T10:02:38;98032.38;;;4.71
17716;BMP280;50159;49.426;11.182;2023-02-01T10:05:13;98034.34;;;4.83
17716;BMP280;50159;49.426;11.182;2023-02-01T10:10:41;98032.34;;;5.04
17716;BMP280;50159;49.426;11.182;2023-02-01T10:14:02;98049.25;;;5.10
17716;BMP280;50159;49.426;11.182;2023-02-01T10:16:51;98053.47;;;5.11
17716;BMP280;50159;49.426;11.182;2023-02-01T10:22:25;98037.44;;;5.06
17716;BMP280;50159;49.426;11.182;2023-02-01T10:25:56;98041.38;;;4.96
17716;BMP280;50159;49.426;11.182;2023-02-01T10:28:26;98041.53;;;4.93
17716;BMP280;50159;49.426;11.182;2023-02-01T10:30:57;98030.41;;;4.92
17716;BMP280;50159;49.426;11.182;2023-02-01T10:33:33;98019.25;;;4.92
17716;BMP280;50159;49.426;11.182;2023-02-01T10:36:28;98036.53;;;4.90
17716;BMP280;50159;49.426;11.182;2023-02-01T10:39:00;98030.16;;;4.97
17716;BMP280;50159;49.426;11.182;2023-02-01T10:41:39;98022.25;;;5.00
17716;BMP280;50159;49.426;11.182;2023-02-01T10:44:14;98017.81;;;5.03
17716;BMP280;50159;49.426;11.182;2023-02-01T10:46:41;98013.16;;;5.10
17716;BMP280;50159;49.426;11.182;2023-02-01T10:49:18;98006.94;;;5.13
17716;BMP280;50159;49.426;11.182;2023-02-01T10:51:55;98008.34;;;5.19
17716;BMP280;50159;49.426;11.182;2023-02-01T10:54:37;98008.03;;;5.25
17716;BMP280;50159;49.426;11.182;2023-02-01T10:57:21;98015.72;;;5.26
17716;BMP280;50159;49.426;11.182;2023-02-01T10:59:48;98019.34;;;5.22
17716;BMP280;50159;49.426;11.182;2023-02-01T11:02:41;98017.69;;;5.21
17716;BMP280;50159;49.426;11.182;2023-02-01T11:05:10;98011.84;;;5.18
17716;BMP280;50159;49.426;11.182;2023-02-01T11:07:48;98001.72;;;5.15
17716;BMP280;50159;49.426;11.182;2023-02-01T11:10:40;98001.91;;;5.11
17716;BMP280;50159;49.426;11.182;2023-02-01T11:13:15;97990.84;;;5.09
17716;BMP280;50159;49.426;11.182;2023-02-01T11:15:45;98005.41;;;5.10
17716;BMP280;50159;49.426;11.182;2023-02-01T11:18:25;97989.03;;;5.11
17716;BMP280;50159;49.426;11.182;2023-02-01T11:20:54;97989.19;;;5.08
17716;BMP280;50159;49.426;11.182;2023-02-01T11:23:25;97982.38;;;5.07
17716;BMP280;50159;49.426;11.182;2023-02-01T11:26:00;97979.72;;;5.08
17716;BMP280;50159;49.426;11.182;2023-02-01T11:28:32;97980.25;;;5.14
17716;BMP280;50159;49.426;11.182;2023-02-01T11:31:05;97972.09;;;5.22
17716;BMP280;50159;49.426;11.182;2023-02-01T11:33:37;97965.94;;;5.24
17716;BMP280;50159;49.426;11.182;2023-02-01T11:36:17;97962.44;;;5.25
17716;BMP280;50159;49.426;11.182;2023-02-01T11:39:06;97965.53;;;5.32
17716;BMP280;50159;49.426;11.182;2023-02-01T11:44:39;97969.78;;;5.33
17716;BMP280;50159;49.426;11.182;2023-02-01T11:47:26;97959.56;;;5.31
17716;BMP280;50159;49.426;11.182;2023-02-01T11:50:00;97951.00;;;5.31
17716;BMP280;50159;49.426;11.182;2023-02-01T11:53:19;97955.22;;;5.32
17716;BMP280;50159;49.426;11.182;2023-02-01T11:59:02;97935.03;;;5.39
17716;BMP280;50159;49.426;11.182;2023-02-01T12:05:05;97940.75;;;5.44
17716;BMP280;50159;49.426;11.182;2023-02-01T12:08:04;97954.31;;;5.48
17716;BMP280;50159;49.426;11.182;2023-02-01T12:13:55;97941.41;;;5.48
17716;BMP280;50159;49.426;11.182;2023-02-01T12:16:55;97937.09;;;5.48
17716;BMP280;50159;49.426;11.182;2023-02-01T12:22:24;97949.34;;;5.45
17716;BMP280;50159;49.426;11.182;2023-02-01T12:25:30;97942.50;;;5.44
17716;BMP280;50159;49.426;11.182;2023-02-01T12:28:25;97938.84;;;5.48
17716;BMP280;50159;49.426;11.182;2023-02-01T12:31:27;97922.53;;;5.47
17716;BMP280;50159;49.426;11.182;2023-02-01T12:39:38;97927.47;;;5.52
17716;BMP280;50159;49.426;11.182;2023-02-01T12:42:24;97919.38;;;5.57
17716;BMP280;50159;49.426;11.182;2023-02-01T12:48:31;97915.69;;;5.61
17716;BMP280;50159;49.426;11.182;2023-02-01T12:51:28;97894.41;;;5.58
17716;BMP280;50159;49.426;11.182;2023-02-01T12:54:02;97904.22;;;5.67
17716;BMP280;50159;49.426;11.182;2023-02-01T12:56:39;97903.72;;;5.76
17716;BMP280;50159;49.426;11.182;2023-02-01T12:59:22;97903.25;;;5.69
17716;BMP280;50159;49.426;11.182;2023-02-01T13:02:04;97905.47;;;5.75
17716;BMP280;50159;49.426;11.182;2023-02-01T13:04:58;97904.59;;;5.76
17716;BMP280;50159;49.426;11.182;2023-02-01T13:07:41;97903.03;;;5.87
17716;BMP280;50159;49.426;11.182;2023-02-01T13:10:35;97899.81;;;5.84
17716;BMP280;50159;49.426;11.182;2023-02-01T13:13:35;97907.75;;;5.81
17716;BMP280;50159;49.426;11.182;2023-02-01T13:16:28;97910.22;;;5.82
17716;BMP280;50159;49.426;11.182;2023-02-01T13:19:35;97902.44;;;5.69
17716;BMP280;50159;49.426;11.182;2023-02-01T13:22:53;97896.25;;;5.71
17716;BMP280;50159;49.426;11.182;2023-02-01T13:25:04;97898.91;;;5.55
17716;BMP280;50159;49.426;11.182;2023-02-01T13:27:37;97889.09;;;5.46
17716;BMP280;50159;49.426;11.182;2023-02-01T13:30:24;97900.16;;;5.48
17716;BMP280;50159;49.426;11.182;2023-02-01T13:33:17;97901.25;;;5.44
17716;BMP280;50159;49.426;11.182;2023-02-01T13:36:30;97900.91;;;5.50
17716;BMP280;50159;49.426;11.182;2023-02-01T13:42:31;97926.53;;;5.53
17716;BMP280;50159;49.426;11.182;2023-02-01T13:45:04;97908.41;;;5.54
17716;BMP280;50159;49.426;11.182;2023-02-01T13:47:42;97910.91;;;5.56
17716;BMP280;50159;49.426;11.182;2023-02-01T13:50:36;97898.56;;;5.60
17716;BMP280;50159;49.426;11.182;2023-02-01T13:53:25;97912.38;;;5.59
17716;BMP280;50159;49.426;11.182;2023-02-01T13:56:11;97904.56;;;5.61
17716;BMP280;50159;49.426;11.182;2023-02-01T13:58:43;97901.75;;;5.65
17716;BMP280;50159;49.426;11.182;2023-02-01T14:07:21;97901.25;;;5.74
17716;BMP280;50159;49.426;11.182;2023-02-01T14:09:48;97896.25;;;5.71
17716;BMP280;50159;49.426;11.182;2023-02-01T14:12:46;97897.59;;;5.78
17716;BMP280;50159;49.426;11.182;2023-02-01T14:17:45;97892.94;;;5.69
17716;BMP280;50159;49.426;11.182;2023-02-01T14:24:03;97879.13;;;5.70
17716;BMP280;50159;49.426;11.182;2023-02-01T14:26:44;97886.75;;;5.72
17716;BMP280;50159;49.426;11.182;2023-02-01T14:29:42;97885.84;;;5.73
17716;BMP280;50159;49.426;11.182;2023-02-01T14:32:21;97891.69;;;5.76
17716;BMP280;50159;49.426;11.182;2023-02-01T14:34:53;97876.25;;;5.75
17716;BMP280;50159;49.426;11.182;2023-02-01T14:37:38;97878.09;;;5.73
17716;BMP280;50159;49.426;11.182;2023-02-01T14:42:50;97885.66;;;5.76
17716;BMP280;50159;49.426;11.182;2023-02-01T14:47:49;97875.78;;;5.68
17716;BMP280;50159;49.426;11.182;2023-02-01T14:50:34;97884.47;;;5.67
17716;BMP280;50159;49.426;11.182;2023-02-01T14:55:59;97894.00;;;5.65
17716;BMP280;50159;49.426;11.182;2023-02-01T14:58:57;97889.53;;;5.69
17716;BMP280;50159;49.426;11.182;2023-02-01T15:01:28;97889.44;;;5.70
17716;BMP280;50159;49.426;11.182;2023-02-01T15:04:09;97887.31;;;5.61
17716;BMP280;50159;49.426;11.182;2023-02-01T15:06:43;97880.78;;;5.56
17716;BMP280;50159;49.426;11.182;2023-02-01T15:17:35;97873.44;;;5.49
17716;BMP280;50159;49.426;11.182;2023-02-01T15:20:18;97872.59;;;5.48
17716;BMP280;50159;49.426;11.182;2023-02-01T15:25:35;97869.94;;;5.50
17716;BMP280;50159;49.426;11.182;2023-02-01T15:28:04;97873.53;;;5.47
17716;BMP280;50159;49.426;11.182;2023-02-01T15:30:35;97853.97;;;5.58
17716;BMP280;50159;49.426;11.182;2023-02-01T15:33:17;97865.94;;;5.59
17716;BMP280;50159;49.426;11.182;2023-02-01T15:35:49;97862.44;;;5.60
17716;BMP280;50159;49.426;11.182;2023-02-01T15:41:00;97867.97;;;5.55
17716;BMP280;50159;49.426;11.182;2023-02-01T15:43:31;97844.38;;;5.60
17716;BMP280;50159;49.426;11.182;2023-02-01T15:46:03;97855.44;;;5.62
17716;BMP280;50159;49.426;11.182;2023-02-01T15:48:44;97849.44;;;5.62
17716;BMP280;50159;49.426;11.182;2023-02-01T15:51:19;97848.91;;;5.57
17716;BMP280;50159;49.426;11.182;2023-02-01T15:53:57;97851.75;;;5.53
17716;BMP280;50159;49.426;11.182;2023-02-01T15:56:29;97858.56;;;5.54
17716;BMP280;50159;49.426;11.182;2023-02-01T15:59:02;97850.81;;;5.54
17716;BMP280;50159;49.426;11.182;2023-02-01T16:01:38;97864.09;;;5.61
17716;BMP280;50159;49.426;11.182;2023-02-01T16:04:21;97868.63;;;5.58
17716;BMP280;50159;49.426;11.182;2023-02-01T16:07:00;97860.88;;;5.73
17716;BMP280;50159;49.426;11.182;2023-02-01T16:09:53;97854.66;;;5.77
17716;BMP280;50159;49.426;11.182;2023-02-01T16:12:29;97852.56;;;5.68
17716;BMP280;50159;49.426;11.182;2023-02-01T16:14:57;97850.28;;;5.62
17716;BMP280;50159;49.426;11.182;2023-02-01T16:17:24;97854.69;;;5.60
17716;BMP280;50159;49.426;11.182;2023-02-01T16:19:51;97855.81;;;5.57
17716;BMP280;50159;49.426;11.182;2023-02-01T16:22:17;97854.97;;;5.56
17716;BMP280;50159;49.426;11.182;2023-02-01T16:24:44;97858.66;;;5.52
17716;BMP280;50159;49.426;11.182;2023-02-01T16:27:11;97879.59;;;5.61